Stoneykirk, United Kingdom

9:48 PM BST on August 27, 2015 (GMT +0100)
Lochans | | Change Station
CLOSE
Current Station
Personal Weather Station
Location: Stranraer, WIGTOWNSHIRE
Elevation: 90 ft
Nearby Weather Stations

Elev 90 ft 54.87 °N, 5.01 °W | Updated 13 minutes ago

Partly Cloudy
Partly Cloudy
56.3 °F
Feels Like 56.3 °F
N
5.0
Wind Variable Wind from SSW
Gusts 13.0 mph

Today
High -- | Low -- °F
--% Chance of Precip.
Yesterday
High -- | Low -- °F
Precip. -- in
6:16 AM 8:25 PM
Waxing Gibbous, 95% visible
Pressure 29.59 in
Visibility 6.2 miles
Clouds Few 2000 ft
Dew Point 54 °F
Humidity 90%
Rainfall 0.22 in
Snow Depth Not available.
UV 0.0 out of 12
Pollen Not available.
Air Quality Not available.
Flu Activity Not available.
METAR EGAC 272020Z 18008KT 9999 FEW020 14/08 Q1002
Pressure 29.59 in
Visibility 6.2 miles
Clouds Few 2000 ft
Dew Point 54 °F
Humidity 90%
Rainfall 0.22 in
Snow Depth Not available.
UV 0.0 out of 12
Pollen Not available.
Air Quality Not available.
Flu Activity Not available.
METAR EGAC 272020Z 18008KT 9999 FEW020 14/08 Q1002

10-Day Weather Forecast

×

Almanac

Astronomy

Aug. 27, 2015 Rise Set
Actual Time
Civil Twilight
Nautical Twilight
Astronomical Twilight
Moon
Length of Visible Light
Length of Day
Tomorrow will be .
, % of the Moon is Illuminated

Today's Extremes

Country Highs Country Lows

Community

WunderPhotos

Upload Photos

1,850,212 photos uploaded!

WunderBlogs® & News

Nearby

Air Quality

  Air Quality AQ Index Pollutant
Not available.

Snow Depth

Station Depth Elevation

Earthquake Activity

City Distance Mag. Time & Date
Minimum magnitude displayed is 2.5.

Coastal Water Temperatures

Place Temperature

Stations

Nearby Weather Stations

Station Location Temp. Windchill Dew Point Humidity Wind Precip. Elev Updated Type